Time;durP1;ratioP1;P1;durP2;ratioP2;P2;SDS_P1;SDS_P2;PMS_P1;PMS_P2;Temp;Humidity;BMP_temperature;BMP_pressure;BME280_temperature;BME280_humidity;BME280_pressure;Samples;Min_cycle;Max_cycle;Signal;HPM_P1;HPM_P2
2023/06/13 00:00:05;;;;;;;6.47;4.80;;;19.20;54.60;;;;;;5055588;28;20052;-64
2023/06/13 00:02:33;;;;;;;9.43;4.65;;;19.10;54.70;;;;;;5055007;28;20393;-64
2023/06/13 00:05:01;;;;;;;8.55;5.10;;;19.10;54.90;;;;;;5055034;28;20041;-64
2023/06/13 00:07:26;;;;;;;9.25;5.22;;;19.00;55.00;;;;;;5055112;28;20056;-64
2023/06/13 00:09:52;;;;;;;7.70;4.80;;;19.00;55.20;;;;;;5055449;28;20483;-64
2023/06/13 00:12:20;;;;;;;7.72;4.80;;;18.90;55.30;;;;;;5055384;28;20396;-64
2023/06/13 00:14:50;;;;;;;6.97;4.97;;;18.90;55.30;;;;;;5054577;28;20402;-64
2023/06/13 00:17:16;;;;;;;8.15;5.13;;;18.90;55.50;;;;;;5054882;28;20391;-64
2023/06/13 00:19:43;;;;;;;8.95;5.72;;;18.90;55.40;;;;;;5055438;28;20059;-64
2023/06/13 00:22:13;;;;;;;7.90;5.40;;;18.90;55.40;;;;;;5054982;28;20505;-64
2023/06/13 00:24:41;;;;;;;8.40;5.72;;;18.80;55.30;;;;;;5055011;28;20052;-64
2023/06/13 00:27:06;;;;;;;11.90;5.15;;;18.90;55.20;;;;;;5054826;28;20037;-64
2023/06/13 00:29:32;;;;;;;11.30;6.53;;;19.00;55.30;;;;;;5054872;28;20059;-64
2023/06/13 00:31:57;;;;;;;8.23;5.60;;;19.00;55.30;;;;;;5055088;28;20052;-64
2023/06/13 00:34:23;;;;;;;10.45;6.20;;;19.00;55.20;;;;;;5054875;28;20041;-64
2023/06/13 00:36:49;;;;;;;7.65;5.55;;;19.00;55.10;;;;;;5054856;28;20041;-64
2023/06/13 00:39:15;;;;;;;7.70;6.45;;;19.00;55.00;;;;;;5054856;28;20414;-64
2023/06/13 00:41:41;;;;;;;11.75;5.75;;;18.90;55.00;;;;;;5054774;28;20041;-64
2023/06/13 00:44:06;;;;;;;7.88;5.65;;;18.90;54.90;;;;;;5054361;28;20048;-64
2023/06/13 00:46:34;;;;;;;9.85;6.32;;;18.90;55.00;;;;;;5054304;28;20083;-64
2023/06/13 00:49:01;;;;;;;10.48;6.57;;;18.90;54.90;;;;;;5054848;28;20036;-64
2023/06/13 00:51:28;;;;;;;9.95;6.18;;;18.90;54.90;;;;;;5054539;28;20475;-64
2023/06/13 00:53:55;;;;;;;9.55;6.43;;;18.90;55.00;;;;;;5054401;28;20039;-64
2023/06/13 00:56:23;;;;;;;10.57;6.70;;;18.80;55.00;;;;;;5054258;28;20051;-63
2023/06/13 00:58:50;;;;;;;13.32;6.82;;;18.80;54.90;;;;;;5054347;28;20044;-64
2023/06/13 01:01:19;;;;;;;10.48;6.80;;;18.80;54.90;;;;;;5054350;28;20049;-64
2023/06/13 01:03:45;;;;;;;10.38;6.70;;;18.70;55.00;;;;;;5053533;28;20067;-64
2023/06/13 01:06:14;;;;;;;8.23;5.85;;;18.70;55.10;;;;;;5054108;28;20037;-64
2023/06/13 01:08:40;;;;;;;10.15;6.82;;;18.70;55.20;;;;;;5036399;28;20041;-64
2023/06/13 01:11:18;;;;;;;10.57;6.95;;;18.70;55.30;;;;;;5053811;28;20078;-64
2023/06/13 01:13:54;;;;;;;12.43;6.57;;;18.60;55.30;;;;;;5036261;28;20518;-64
2023/06/13 01:16:35;;;;;;;10.45;6.75;;;18.60;55.30;;;;;;5053717;28;20037;-64
2023/06/13 01:19:03;;;;;;;;;;;18.60;55.40;;;;;;5054219;28;20037;-64
2023/06/13 01:21:32;;;;;;;8.20;6.53;;;18.60;55.60;;;;;;5035256;28;19924;-64
2023/06/13 01:24:05;;;;;;;8.95;6.18;;;18.40;55.70;;;;;;5035764;28;20045;-64
2023/06/13 01:26:46;;;;;;;9.07;6.45;;;18.50;55.90;;;;;;5053895;28;20043;-64
2023/06/13 01:29:13;;;;;;;10.40;7.07;;;18.40;56.00;;;;;;5053925;28;20033;-64
2023/06/13 01:31:41;;;;;;;11.55;7.22;;;18.40;56.00;;;;;;5053831;28;20044;-64
2023/06/13 01:34:07;;;;;;;10.23;6.97;;;18.40;56.30;;;;;;5053467;28;20398;-64
2023/06/13 01:36:34;;;;;;;10.82;6.85;;;18.30;56.40;;;;;;5054043;28;20037;-64
2023/06/13 01:38:59;;;;;;;10.73;7.18;;;18.30;56.70;;;;;;5053817;28;20111;-64
2023/06/13 01:41:25;;;;;;;10.05;6.93;;;18.30;56.80;;;;;;5053725;28;20490;-64
2023/06/13 01:43:51;;;;;;;11.85;7.15;;;18.20;56.80;;;;;;5053305;28;20033;-64
2023/06/13 01:46:28;;;;;;;9.95;6.97;;;18.20;57.00;;;;;;5053483;28;20079;-64
2023/06/13 01:49:19;;;;;;;9.73;6.82;;;18.10;57.00;;;;;;5053420;28;20090;-64
2023/06/13 01:52:03;;;;;;;11.25;7.07;;;18.10;57.20;;;;;;5053593;28;20124;-64
2023/06/13 01:54:33;;;;;;;8.88;7.10;;;18.10;57.30;;;;;;5053323;28;20087;-64
2023/06/13 01:57:05;;;;;;;9.63;7.07;;;18.10;57.40;;;;;;5053021;28;20041;-64
2023/06/13 01:59:32;;;;;;;11.77;6.88;;;18.00;57.50;;;;;;5053653;28;20044;-64
2023/06/13 02:01:58;;;;;;;10.25;6.72;;;18.00;57.80;;;;;;5043110;28;20044;-64
2023/06/13 02:04:25;;;;;;;11.63;6.75;;;18.00;57.90;;;;;;5039758;28;20045;-64
2023/06/13 02:06:50;;;;;;;9.20;6.60;;;17.90;58.00;;;;;;5032210;28;20041;-64
2023/06/13 02:09:16;;;;;;;12.77;7.30;;;17.90;57.90;;;;;;5032812;28;20067;-64
2023/06/13 02:11:41;;;;;;;10.32;7.00;;;17.80;58.00;;;;;;5032237;28;20059;-64
2023/06/13 02:14:07;;;;;;;11.00;7.22;;;17.80;58.20;;;;;;5033098;28;20069;-64
2023/06/13 02:16:32;;;;;;;10.70;6.53;;;17.80;58.30;;;;;;5032268;28;20033;-64
2023/06/13 02:19:01;;;;;;;10.73;6.55;;;17.80;58.50;;;;;;5033041;28;20037;-64
2023/06/13 02:21:29;;;;;;;10.27;6.93;;;17.70;58.60;;;;;;5032942;28;20121;-64
2023/06/13 02:23:54;;;;;;;8.95;6.50;;;17.70;58.80;;;;;;5032591;28;20653;-64
2023/06/13 02:26:20;;;;;;;11.02;7.63;;;17.70;59.10;;;;;;5032353;28;20113;-64
2023/06/13 02:28:47;;;;;;;10.35;6.50;;;17.50;59.20;;;;;;5047149;28;20040;-64
2023/06/13 02:31:13;;;;;;;11.75;6.82;;;17.50;59.40;;;;;;5052850;28;20051;-64
2023/06/13 02:33:38;;;;;;;12.60;6.55;;;17.50;59.50;;;;;;5052445;28;20037;-64
2023/06/13 02:36:05;;;;;;;10.48;6.20;;;17.40;59.70;;;;;;5052615;28;20037;-64
2023/06/13 02:38:31;;;;;;;11.05;6.72;;;17.40;59.80;;;;;;5052324;28;20633;-64
2023/06/13 02:40:56;;;;;;;10.95;6.53;;;17.40;60.00;;;;;;5052376;28;20040;-64
2023/06/13 02:43:22;;;;;;;12.35;6.32;;;17.30;60.20;;;;;;5051884;28;20399;-64
2023/06/13 02:45:47;;;;;;;9.35;6.65;;;17.30;60.50;;;;;;5052497;28;20127;-64
2023/06/13 02:48:13;;;;;;;11.00;6.18;;;17.20;60.60;;;;;;5051973;28;20068;-64
2023/06/13 02:50:39;;;;;;;9.55;6.53;;;17.20;60.90;;;;;;5052449;28;20090;-64
2023/06/13 02:53:05;;;;;;;11.70;7.18;;;17.20;61.00;;;;;;5052140;28;20037;-64
2023/06/13 02:55:30;;;;;;;9.48;7.20;;;17.10;61.10;;;;;;5051837;28;20051;-64
2023/06/13 02:57:56;;;;;;;8.70;6.70;;;17.10;61.40;;;;;;5052357;28;20410;-64
2023/06/13 03:00:22;;;;;;;12.18;6.88;;;17.00;61.50;;;;;;5052292;28;20056;-64
2023/06/13 03:02:47;;;;;;;11.05;7.30;;;17.00;61.80;;;;;;5052171;28;20548;-64
2023/06/13 03:05:17;;;;;;;7.10;6.28;;;16.90;61.80;;;;;;5052012;28;20040;-64
2023/06/13 03:07:46;;;;;;;12.65;6.80;;;16.90;61.90;;;;;;5051992;28;20033;-64
2023/06/13 03:10:12;;;;;;;10.93;6.82;;;16.90;62.10;;;;;;5051529;28;20037;-64
2023/06/13 03:12:39;;;;;;;11.77;7.20;;;16.90;62.20;;;;;;5051662;28;20502;-64
2023/06/13 03:15:06;;;;;;;8.98;6.40;;;16.90;62.30;;;;;;5051865;28;20037;-64
2023/06/13 03:17:32;;;;;;;8.60;6.53;;;16.90;62.50;;;;;;5051057;28;20150;-64
2023/06/13 03:19:58;;;;;;;10.63;6.95;;;16.80;62.60;;;;;;5051977;28;20061;-64
2023/06/13 03:22:24;;;;;;;7.85;6.28;;;16.80;62.70;;;;;;5033860;28;20072;-64
2023/06/13 03:24:50;;;;;;;8.27;6.32;;;16.80;62.90;;;;;;5033677;28;20041;-64
2023/06/13 03:27:15;;;;;;;10.05;6.68;;;16.80;63.00;;;;;;5051168;28;20040;-64
2023/06/13 03:29:42;;;;;;;11.32;6.47;;;16.80;63.00;;;;;;5051539;28;20406;-64
2023/06/13 03:32:08;;;;;;;9.30;6.40;;;16.90;63.10;;;;;;5034210;28;20545;-64
2023/06/13 03:34:38;;;;;;;9.75;6.75;;;16.90;63.10;;;;;;5033499;28;20490;-64
2023/06/13 03:37:07;;;;;;;9.13;6.78;;;16.80;63.30;;;;;;5051482;28;20037;-63
2023/06/13 03:39:34;;;;;;;10.43;6.63;;;16.80;63.70;;;;;;5051315;28;20548;-64
2023/06/13 03:42:00;;;;;;;7.78;6.70;;;16.80;63.90;;;;;;5051610;28;20088;-64
2023/06/13 03:44:29;;;;;;;8.73;6.25;;;16.70;64.00;;;;;;5050916;28;20033;-63
2023/06/13 03:46:55;;;;;;;9.30;5.95;;;16.80;64.20;;;;;;5051589;28;20033;-64
2023/06/13 03:49:22;;;;;;;6.80;5.85;;;16.80;64.40;;;;;;5033863;28;20077;-64
2023/06/13 03:51:48;;;;;;;10.13;6.45;;;16.70;64.70;;;;;;5033148;28;20044;-64
2023/06/13 03:54:14;;;;;;;11.77;6.50;;;16.70;64.80;;;;;;5051239;28;20062;-64
2023/06/13 03:56:40;;;;;;;9.60;6.00;;;16.70;64.90;;;;;;5071374;22;20051;-64
2023/06/13 03:59:05;;;;;;;14.05;6.72;;;16.70;65.00;;;;;;5070751;28;20522;-64
2023/06/13 04:01:31;;;;;;;10.10;6.05;;;16.70;65.20;;;;;;5063793;28;20513;-64
2023/06/13 04:03:57;;;;;;;9.93;5.60;;;16.60;65.30;;;;;;5068106;28;20055;-64
2023/06/13 04:06:23;;;;;;;10.15;6.60;;;16.60;65.50;;;;;;5063026;28;20604;-64
2023/06/13 04:08:48;;;;;;;10.68;5.75;;;16.70;65.60;;;;;;5070759;28;20040;-65
2023/06/13 04:11:14;;;;;;;7.97;5.95;;;16.70;65.70;;;;;;5071606;28;20082;-65
2023/06/13 04:13:41;;;;;;;10.55;6.03;;;16.70;66.50;;;;;;5071151;28;20044;-65
2023/06/13 04:16:07;;;;;;;8.30;5.93;;;16.70;65.80;;;;;;5071405;28;20049;-65
2023/06/13 04:18:36;;;;;;;9.35;5.78;;;16.80;65.90;;;;;;5071218;28;20080;-65
2023/06/13 04:21:06;;;;;;;7.40;5.70;;;16.80;65.70;;;;;;5071548;28;20037;-65
2023/06/13 04:23:32;;;;;;;7.47;5.75;;;16.80;65.80;;;;;;5053813;28;20047;-65
2023/06/13 04:26:02;;;;;;;9.75;5.97;;;16.80;65.80;;;;;;5071352;28;20056;-65
2023/06/13 04:28:29;;;;;;;8.43;5.77;;;16.90;65.80;;;;;;5058370;28;20384;-65
2023/06/13 04:30:56;;;;;;;6.95;5.43;;;16.90;66.00;;;;;;5051303;28;20041;-65
2023/06/13 04:33:24;;;;;;;9.35;5.60;;;17.00;66.20;;;;;;5049981;28;20033;-65
2023/06/13 04:35:49;;;;;;;9.18;5.35;;;17.00;66.50;;;;;;5033285;28;20094;-65
2023/06/13 04:38:20;;;;;;;10.32;5.07;;;17.00;66.80;;;;;;5033414;28;20052;-65
2023/06/13 04:40:45;;;;;;;8.70;5.53;;;17.10;66.80;;;;;;5054067;28;20048;-65
2023/06/13 04:43:14;;;;;;;7.82;5.32;;;17.10;66.90;;;;;;5054536;28;20038;-65
2023/06/13 04:45:44;;;;;;;10.38;5.40;;;17.10;67.20;;;;;;5054299;28;20041;-65
2023/06/13 04:48:10;;;;;;;7.45;5.20;;;17.10;67.10;;;;;;5054661;28;20139;-65
2023/06/13 04:50:40;;;;;;;7.05;5.05;;;17.20;67.10;;;;;;5036370;28;20124;-65
2023/06/13 04:53:11;;;;;;;9.20;5.82;;;17.20;67.10;;;;;;5036713;28;20045;-65
2023/06/13 04:55:37;;;;;;;7.80;5.20;;;17.30;67.20;;;;;;5054238;28;20044;-65
2023/06/13 04:58:04;;;;;;;7.00;4.80;;;17.30;67.50;;;;;;5053793;28;20506;-65
2023/06/13 05:00:30;;;;;;;8.50;5.10;;;17.30;67.50;;;;;;5053968;28;20127;-65
2023/06/13 05:02:56;;;;;;;7.18;4.75;;;17.50;67.20;;;;;;5054430;28;20045;-65
2023/06/13 05:05:22;;;;;;;6.00;4.60;;;17.60;67.00;;;;;;5036206;28;20052;-65
2023/06/13 05:07:55;;;;;;;8.27;4.97;;;17.70;67.00;;;;;;5053822;28;20159;-65
2023/06/13 05:10:23;;;;;;;8.75;5.07;;;17.70;66.60;;;;;;5053959;28;20437;-65
2023/06/13 05:12:49;;;;;;;8.75;4.80;;;17.90;66.20;;;;;;5054105;28;20041;-65
2023/06/13 05:15:16;;;;;;;7.68;4.30;;;17.90;65.90;;;;;;5053318;28;20380;-65
2023/06/13 05:17:45;;;;;;;6.78;4.40;;;18.10;66.00;;;;;;5036209;28;20084;-65
2023/06/13 05:20:12;;;;;;;8.13;4.40;;;18.10;66.90;;;;;;5053664;28;20405;-65
2023/06/13 05:22:41;;;;;;;7.00;4.70;;;18.20;66.30;;;;;;5036151;28;20056;-64
2023/06/13 05:25:09;;;;;;;10.73;4.82;;;18.30;66.20;;;;;;5052946;28;20418;-65
2023/06/13 05:27:35;;;;;;;6.30;4.57;;;18.40;65.60;;;;;;5053620;28;20092;-65
2023/06/13 05:30:01;;;;;;;6.45;4.80;;;18.50;65.20;;;;;;5035920;28;20041;-65
2023/06/13 05:32:27;;;;;;;9.00;4.63;;;18.70;64.80;;;;;;5053381;28;20116;-64
2023/06/13 05:34:53;;;;;;;6.05;4.63;;;19.00;64.40;;;;;;5053211;28;20467;-65
2023/06/13 05:37:18;;;;;;;8.05;4.45;;;19.10;64.10;;;;;;5053658;28;20037;-65
2023/06/13 05:39:44;;;;;;;12.32;4.68;;;19.30;63.30;;;;;;5053604;28;20064;-64
2023/06/13 05:42:10;;;;;;;8.88;4.60;;;19.40;62.80;;;;;;5053032;28;20379;-64
2023/06/13 05:44:36;;;;;;;7.93;4.50;;;19.50;62.50;;;;;;5053177;28;20041;-65
2023/06/13 05:47:02;;;;;;;7.50;4.90;;;19.60;62.40;;;;;;5035200;28;20037;-65
2023/06/13 05:49:28;;;;;;;8.55;4.13;;;19.60;62.40;;;;;;5053317;28;20041;-65
2023/06/13 05:51:54;;;;;;;6.63;4.40;;;19.60;62.30;;;;;;5053540;28;20376;-65
2023/06/13 05:54:20;;;;;;;8.15;4.65;;;19.60;62.30;;;;;;5053103;28;20064;-64
2023/06/13 05:56:45;;;;;;;6.93;4.38;;;19.60;62.20;;;;;;5053087;28;20455;-65
2023/06/13 05:59:14;;;;;;;6.93;4.55;;;19.60;62.30;;;;;;5053389;28;20060;-64
2023/06/13 06:01:42;;;;;;;5.60;4.20;;;19.60;62.30;;;;;;5053341;28;20056;-65
2023/06/13 06:04:07;;;;;;;7.07;4.90;;;19.60;62.60;;;;;;5052959;28;20151;-64
2023/06/13 06:06:34;;;;;;;5.60;4.10;;;19.60;62.50;;;;;;5053154;28;20112;-65
2023/06/13 06:09:00;;;;;;;5.28;4.10;;;19.70;62.40;;;;;;5053028;28;20116;-64
2023/06/13 06:11:26;;;;;;;7.60;4.63;;;19.70;61.70;;;;;;5052975;28;20171;-65
2023/06/13 06:13:52;;;;;;;6.57;4.85;;;19.80;61.80;;;;;;5034771;28;20083;-64
2023/06/13 06:16:17;;;;;;;6.13;4.72;;;19.80;61.50;;;;;;5052724;28;20138;-64
2023/06/13 06:18:43;;;;;;;7.13;4.50;;;19.90;61.20;;;;;;5052966;28;20029;-65
2023/06/13 06:21:09;;;;;;;8.80;4.30;;;19.90;61.50;;;;;;5034800;28;20072;-65
2023/06/13 06:23:36;;;;;;;7.13;4.47;;;20.00;61.30;;;;;;5052522;28;20087;-65
2023/06/13 06:26:02;;;;;;;7.70;4.03;;;20.00;60.70;;;;;;5052348;28;20041;-65
2023/06/13 06:28:27;;;;;;;10.00;4.50;;;20.10;60.40;;;;;;5052427;28;20114;-64
2023/06/13 06:30:53;;;;;;;8.25;4.50;;;20.10;60.30;;;;;;5052485;28;20487;-65
2023/06/13 06:33:20;;;;;;;8.40;4.38;;;20.10;59.80;;;;;;5052424;28;20045;-65
2023/06/13 06:35:45;;;;;;;6.50;4.47;;;20.10;59.50;;;;;;5052489;28;20537;-65
2023/06/13 06:38:11;;;;;;;6.80;4.40;;;20.10;59.40;;;;;;5052130;28;20064;-65
2023/06/13 06:40:36;;;;;;;7.60;4.40;;;20.30;59.90;;;;;;5052016;28;20047;-65
2023/06/13 06:43:02;;;;;;;5.40;4.55;;;20.30;59.30;;;;;;5034593;28;20041;-64
2023/06/13 06:45:27;;;;;;;6.18;4.40;;;20.40;59.30;;;;;;5052309;28;20413;-65
2023/06/13 06:47:53;;;;;;;6.68;4.32;;;20.40;59.30;;;;;;5052561;28;20037;-65
2023/06/13 06:50:19;;;;;;;8.35;4.80;;;20.50;59.10;;;;;;5052339;28;20033;-65
2023/06/13 06:52:44;;;;;;;6.82;5.10;;;20.60;59.40;;;;;;5052362;28;20486;-64
2023/06/13 06:55:10;;;;;;;6.38;4.55;;;20.70;58.20;;;;;;5051798;28;20122;-65
2023/06/13 06:57:36;;;;;;;5.22;4.63;;;20.90;58.60;;;;;;5052143;28;20410;-64
2023/06/13 07:00:02;;;;;;;6.75;4.90;;;21.00;58.50;;;;;;5052293;28;20048;-64
2023/06/13 07:02:28;;;;;;;5.68;4.72;;;21.20;58.30;;;;;;5051655;28;20048;-64
2023/06/13 07:04:53;;;;;;;6.80;4.82;;;21.30;58.00;;;;;;5051490;28;20415;-64
2023/06/13 07:07:19;;;;;;;7.75;5.20;;;21.30;57.50;;;;;;5034171;28;20040;-64
2023/06/13 07:09:45;;;;;;;7.72;4.63;;;21.40;57.60;;;;;;5034247;28;20565;-64
2023/06/13 07:12:10;;;;;;;9.55;4.50;;;21.50;57.50;;;;;;5017356;28;20041;-64
2023/06/13 07:14:36;;;;;;;6.85;5.15;;;21.70;57.10;;;;;;5051726;28;20305;-64
2023/06/13 07:17:02;;;;;;;9.15;5.07;;;21.80;57.00;;;;;;5051543;28;20041;-64
2023/06/13 07:19:27;;;;;;;8.35;5.07;;;21.70;56.70;;;;;;5051811;28;20112;-64
2023/06/13 07:21:53;;;;;;;8.93;5.20;;;21.80;56.90;;;;;;5051554;28;20033;-64
2023/06/13 07:24:19;;;;;;;8.38;4.97;;;21.80;57.20;;;;;;5051545;28;20051;-64
2023/06/13 07:26:45;;;;;;;8.75;5.55;;;21.80;56.90;;;;;;5033467;28;20131;-64
2023/06/13 07:29:10;;;;;;;9.60;5.13;;;21.70;57.30;;;;;;5051281;28;20112;-64
2023/06/13 07:31:36;;;;;;;7.15;5.72;;;21.90;57.20;;;;;;5051547;28;20067;-65
2023/06/13 07:34:02;;;;;;;8.32;4.90;;;21.90;56.80;;;;;;5051583;28;20044;-64
2023/06/13 07:36:28;;;;;;;7.75;4.82;;;21.90;56.30;;;;;;5050920;28;20490;-64
2023/06/13 07:38:53;;;;;;;8.82;5.32;;;22.10;56.40;;;;;;5051650;28;20048;-64
2023/06/13 07:41:19;;;;;;;8.60;5.00;;;22.20;56.10;;;;;;5051718;28;20048;-64
2023/06/13 07:43:44;;;;;;;6.47;4.80;;;22.40;56.10;;;;;;5051159;28;20044;-64
2023/06/13 07:46:10;;;;;;;14.75;5.43;;;22.50;55.90;;;;;;5051257;28;20051;-64
2023/06/13 07:48:35;;;;;;;7.53;5.10;;;22.60;55.20;;;;;;5033819;28;20398;-64
2023/06/13 07:51:02;;;;;;;7.13;4.65;;;22.60;54.60;;;;;;5051441;28;20068;-64
2023/06/13 07:53:27;;;;;;;7.50;5.18;;;22.60;54.80;;;;;;5051183;28;20838;-64
2023/06/13 07:55:55;;;;;;;8.50;4.72;;;22.70;54.80;;;;;;5051575;28;20036;-65
2023/06/13 07:58:21;;;;;;;7.70;5.03;;;22.80;54.90;;;;;;5051560;28;20486;-64
2023/06/13 08:00:46;;;;;;;8.70;4.55;;;23.00;54.80;;;;;;5033484;28;20047;-64
2023/06/13 08:03:12;;;;;;;5.53;4.70;;;23.10;54.70;;;;;;5051292;28;20045;-64
2023/06/13 08:05:38;;;;;;;8.32;4.55;;;23.30;53.80;;;;;;5051401;28;20032;-64
2023/06/13 08:08:03;;;;;;;7.00;4.95;;;23.50;53.30;;;;;;5051351;28;20499;-64
2023/06/13 08:10:29;;;;;;;7.88;4.75;;;23.50;53.30;;;;;;5051102;28;20413;-65
2023/06/13 08:12:54;;;;;;;8.88;4.78;;;23.60;53.30;;;;;;5033554;28;20148;-64
2023/06/13 08:15:20;;;;;;;8.80;4.97;;;23.60;52.90;;;;;;5053810;28;20033;-65
2023/06/13 08:17:46;;;;;;;5.78;4.28;;;23.60;52.40;;;;;;5054791;28;20073;-65
2023/06/13 08:20:12;;;;;;;8.80;4.50;;;23.80;52.00;;;;;;5055172;28;20033;-64
2023/06/13 08:22:38;;;;;;;6.75;4.60;;;24.00;52.10;;;;;;5036817;28;20069;-65
2023/06/13 08:25:08;;;;;;;7.72;4.28;;;24.20;51.80;;;;;;5037290;28;20033;-64
2023/06/13 08:27:38;;;;;;;7.05;4.70;;;24.40;51.90;;;;;;5037208;28;20029;-65
2023/06/13 08:30:05;;;;;;;7.20;4.38;;;24.60;51.30;;;;;;5055081;28;20056;-65
2023/06/13 08:32:31;;;;;;;7.32;3.83;;;24.70;51.60;;;;;;5055223;28;20124;-64
2023/06/13 08:34:58;;;;;;;6.78;4.00;;;24.70;50.60;;;;;;5036688;28;20045;-64
2023/06/13 08:37:23;;;;;;;6.10;4.32;;;24.70;51.20;;;;;;5055017;28;20045;-64
2023/06/13 08:39:49;;;;;;;7.47;3.83;;;24.80;51.20;;;;;;5054941;28;20041;-64
2023/06/13 08:42:15;;;;;;;8.15;4.03;;;24.90;51.20;;;;;;5054446;28;20041;-64
2023/06/13 08:44:41;;;;;;;5.85;4.00;;;25.00;50.80;;;;;;5036549;28;20486;-64
2023/06/13 08:47:07;;;;;;;8.40;4.10;;;25.00;49.60;;;;;;5054292;28;20079;-64
2023/06/13 08:49:33;;;;;;;5.90;3.90;;;24.90;49.30;;;;;;5054613;28;20033;-64
2023/06/13 08:52:01;;;;;;;5.10;3.20;;;24.90;49.30;;;;;;5053748;28;20461;-64
2023/06/13 08:54:30;;;;;;;4.15;3.53;;;25.00;50.40;;;;;;5054508;28;20492;-64
2023/06/13 08:56:58;;;;;;;7.30;4.18;;;25.00;49.80;;;;;;5054203;28;20040;-64
2023/06/13 08:59:30;;;;;;;6.53;4.10;;;25.10;49.30;;;;;;5054551;28;20048;-64
2023/06/13 09:01:57;;;;;;;5.47;4.03;;;25.30;49.50;;;;;;5054322;28;20047;-64
2023/06/13 09:04:27;;;;;;;4.75;3.50;;;25.50;49.40;;;;;;5036245;28;20045;-64
2023/06/13 09:06:58;;;;;;;7.50;3.95;;;25.70;49.40;;;;;;5054522;28;20032;-64
2023/06/13 09:09:28;;;;;;;5.70;3.83;;;25.90;49.20;;;;;;5054497;28;20037;-65
2023/06/13 09:11:55;;;;;;;10.90;3.80;;;25.80;50.00;;;;;;5054240;28;20059;-65
2023/06/13 09:14:21;;;;;;;6.78;4.00;;;25.70;49.30;;;;;;5036226;28;20163;-65
2023/06/13 09:16:50;;;;;;;8.75;3.60;;;25.60;49.10;;;;;;5053966;28;20053;-65
2023/06/13 09:19:16;;;;;;;5.57;3.42;;;25.60;48.70;;;;;;5054143;28;20426;-65
2023/06/13 09:21:43;;;;;;;6.38;3.60;;;25.60;49.60;;;;;;5035956;28;20119;-65
2023/06/13 09:24:09;;;;;;;5.50;3.65;;;25.60;49.10;;;;;;5035916;28;20167;-65
2023/06/13 09:26:35;;;;;;;6.07;3.72;;;25.70;48.50;;;;;;5053623;28;20119;-65
2023/06/13 09:29:01;;;;;;;4.30;3.80;;;25.90;47.50;;;;;;5053819;28;20048;-65
2023/06/13 09:31:29;;;;;;;6.00;3.75;;;25.90;46.90;;;;;;5053709;28;20029;-65
2023/06/13 09:34:00;;;;;;;8.15;4.10;;;25.80;47.00;;;;;;5053315;28;20122;-65
2023/06/13 09:36:27;;;;;;;6.35;3.45;;;25.90;47.50;;;;;;5035941;28;20045;-65
2023/06/13 09:38:54;;;;;;;6.35;3.47;;;25.90;46.80;;;;;;5053446;28;20049;-64
2023/06/13 09:41:20;;;;;;;4.50;3.40;;;25.80;46.30;;;;;;5053590;28;20040;-65
2023/06/13 09:43:50;;;;;;;5.97;3.97;;;25.90;46.50;;;;;;5053243;28;20047;-64
2023/06/13 09:46:15;;;;;;;4.00;3.40;;;25.90;46.20;;;;;;5053860;28;20042;-64
2023/06/13 09:48:45;;;;;;;6.25;3.75;;;26.10;46.40;;;;;;5053581;28;20402;-65
2023/06/13 09:51:11;;;;;;;5.38;3.78;;;26.30;45.70;;;;;;5053067;28;20491;-65
2023/06/13 09:53:37;;;;;;;5.68;3.40;;;26.40;45.90;;;;;;5053036;28;20123;-65
2023/06/13 09:58:37;;;;;;;10.13;3.63;;;26.30;45.30;;;;;;5028845;28;20069;-65
2023/06/13 10:01:03;;;;;;;6.22;3.25;;;26.30;45.40;;;;;;5024987;28;20480;-64
2023/06/13 10:03:30;;;;;;;7.60;3.92;;;26.30;46.30;;;;;;5032854;28;20041;-65
2023/06/13 10:06:00;;;;;;;6.47;3.45;;;26.40;45.60;;;;;;5033408;28;20034;-64
2023/06/13 10:08:26;;;;;;;;;;;26.40;44.40;;;;;;5033558;28;20128;-64
2023/06/13 10:10:54;;;;;;;5.80;3.88;;;26.50;45.40;;;;;;5033002;28;19968;-65
2023/06/13 10:13:32;;;;;;;4.90;3.95;;;26.60;44.70;;;;;;5033104;28;20046;-64
2023/06/13 10:15:59;;;;;;;5.18;3.88;;;26.70;43.90;;;;;;5033206;28;20045;-64
2023/06/13 10:18:30;;;;;;;6.72;3.65;;;26.80;43.70;;;;;;5033096;28;20045;-64
2023/06/13 10:20:58;;;;;;;6.03;3.80;;;26.90;43.20;;;;;;5033070;28;20045;-65
2023/06/13 10:23:30;;;;;;;5.35;3.40;;;26.80;43.30;;;;;;5032489;28;20052;-65
2023/06/13 10:26:00;;;;;;;7.95;3.85;;;26.80;43.00;;;;;;5033110;28;20033;-65
2023/06/13 10:28:40;;;;;;;4.37;3.77;;;26.80;42.90;;;;;;5032870;28;20034;-65
2023/06/13 10:31:26;;;;;;;4.93;3.67;;;26.80;43.70;;;;;;5032824;28;20277;-65
2023/06/13 10:34:10;;;;;;;10.02;4.00;;;26.90;42.70;;;;;;5032302;28;20521;-65
2023/06/13 10:37:01;;;;;;;5.85;3.90;;;27.00;43.10;;;;;;5032214;28;20037;-65
2023/06/13 10:39:26;;;;;;;;;;;27.10;43.20;;;;;;5033125;28;20064;-65
2023/06/13 10:42:12;;;;;;;8.35;4.07;;;27.10;43.40;;;;;;5031982;28;19925;-65
2023/06/13 10:44:38;;;;;;;6.32;3.80;;;27.20;42.30;;;;;;5032160;28;20045;-64
2023/06/13 10:47:06;;;;;;;11.77;4.53;;;27.50;41.90;;;;;;5032396;28;20041;-65
2023/06/13 10:49:39;;;;;;;6.38;3.88;;;27.60;41.30;;;;;;5032156;28;20092;-65
2023/06/13 10:52:10;;;;;;;4.75;3.80;;;27.70;41.70;;;;;;5032395;28;20037;-65
2023/06/13 10:54:36;;;;;;;7.20;4.07;;;27.60;41.60;;;;;;5031651;28;20038;-65
2023/06/13 10:57:02;;;;;;;6.07;4.13;;;27.50;41.30;;;;;;5032342;28;20048;-65
2023/06/13 10:59:40;;;;;;;4.90;4.30;;;27.50;41.00;;;;;;5032073;28;20041;-65
2023/06/13 11:02:14;;;;;;;8.43;3.95;;;27.50;40.10;;;;;;5032081;28;20038;-65
2023/06/13 11:04:40;;;;;;;7.47;4.43;;;27.40;40.60;;;;;;5031368;28;20056;-65
2023/06/13 11:07:35;;;;;;;6.30;4.25;;;27.30;42.10;;;;;;5032072;28;20052;-65
2023/06/13 11:10:10;;;;;;;13.10;4.20;;;27.30;41.00;;;;;;5018983;28;20443;-65
2023/06/13 11:12:37;;;;;;;6.57;4.20;;;27.40;40.90;;;;;;5031568;28;20048;-65
2023/06/13 11:15:03;;;;;;;6.28;4.28;;;27.50;41.20;;;;;;5031803;28;20124;-65
2023/06/13 11:17:29;;;;;;;7.95;4.40;;;27.60;41.00;;;;;;5031892;28;20052;-65
2023/06/13 11:19:56;;;;;;;5.78;3.90;;;27.70;40.40;;;;;;5032266;28;20049;-65
2023/06/13 11:22:22;;;;;;;4.93;4.22;;;27.90;39.90;;;;;;5013833;28;20052;-65
2023/06/13 11:24:49;;;;;;;5.75;3.60;;;28.00;38.80;;;;;;5031483;28;20038;-65
2023/06/13 11:27:16;;;;;;;4.88;3.88;;;28.00;39.10;;;;;;5031701;28;20514;-65
2023/06/13 11:29:46;;;;;;;6.03;4.47;;;27.80;39.00;;;;;;5031884;28;20116;-65
2023/06/13 11:32:12;;;;;;;5.20;3.95;;;27.70;38.50;;;;;;5031707;28;20045;-65
2023/06/13 11:34:51;;;;;;;4.57;3.80;;;27.70;39.20;;;;;;5014148;28;20037;-65
2023/06/13 11:37:26;;;;;;;8.27;4.40;;;27.60;39.70;;;;;;5031898;28;20046;-65
2023/06/13 11:39:55;;;;;;;6.35;3.90;;;27.40;39.60;;;;;;5031875;28;20041;-65
2023/06/13 11:42:22;;;;;;;6.30;3.75;;;27.30;39.70;;;;;;5031622;28;20060;-65
2023/06/13 11:44:47;;;;;;;7.93;4.03;;;27.30;39.70;;;;;;5031528;28;20069;-65
2023/06/13 11:47:14;;;;;;;5.25;3.80;;;27.30;39.70;;;;;;5031503;28;20069;-65
2023/06/13 11:49:39;;;;;;;8.50;4.20;;;27.20;40.50;;;;;;5035010;28;20041;-65
2023/06/13 11:52:14;;;;;;;6.45;4.03;;;27.10;40.90;;;;;;5035808;28;20045;-65
2023/06/13 11:54:43;;;;;;;6.13;4.03;;;27.20;40.00;;;;;;5017294;28;20159;-65
2023/06/13 11:57:09;;;;;;;4.93;4.00;;;27.30;40.20;;;;;;5035446;28;20116;-65
2023/06/13 11:59:35;;;;;;;5.65;3.80;;;27.50;40.20;;;;;;5035488;28;20080;-65
2023/06/13 12:02:01;;;;;;;5.50;3.70;;;27.70;39.70;;;;;;5035489;28;20120;-65
2023/06/13 12:04:29;;;;;;;5.03;4.22;;;27.90;40.50;;;;;;5035006;28;20030;-65
2023/06/13 12:06:55;;;;;;;6.32;4.25;;;27.90;39.70;;;;;;5035513;28;20033;-65
2023/06/13 12:09:21;;;;;;;7.47;3.67;;;27.80;40.80;;;;;;5035008;28;20041;-65
2023/06/13 12:11:47;;;;;;;5.50;3.83;;;27.80;40.50;;;;;;5034830;28;20033;-65
2023/06/13 12:14:13;;;;;;;10.20;4.28;;;27.90;40.00;;;;;;5035060;28;20041;-65
2023/06/13 12:16:39;;;;;;;5.18;3.75;;;27.90;41.40;;;;;;5035443;28;20034;-65
2023/06/13 12:19:07;;;;;;;10.00;4.60;;;28.10;40.50;;;;;;5035420;28;20038;-65
2023/06/13 12:21:37;;;;;;;6.40;3.80;;;28.20;40.40;;;;;;5034653;28;20041;-65
2023/06/13 12:24:06;;;;;;;5.85;3.67;;;28.10;39.50;;;;;;5034436;28;20079;-65
2023/06/13 12:26:34;;;;;;;8.88;4.32;;;27.80;39.60;;;;;;5035487;28;20045;-65
2023/06/13 12:29:06;;;;;;;4.88;3.70;;;27.70;39.70;;;;;;5034447;28;20033;-65
2023/06/13 12:31:38;;;;;;;5.40;3.83;;;27.60;40.20;;;;;;5035153;28;20479;-65
2023/06/13 12:34:27;;;;;;;6.28;4.15;;;27.60;40.40;;;;;;5034447;28;20037;-65
2023/06/13 12:36:57;;;;;;;8.10;3.97;;;27.60;40.80;;;;;;5034523;28;20045;-65
2023/06/13 12:39:23;;;;;;;;;;;27.80;40.20;;;;;;5035213;28;20046;-65
2023/06/13 12:41:52;;;;;;;5.57;3.92;;;28.00;39.20;;;;;;5034925;28;19971;-65
2023/06/13 12:44:21;;;;;;;6.40;3.83;;;28.20;38.90;;;;;;5034381;28;20034;-65
2023/06/13 12:46:49;;;;;;;5.43;4.28;;;28.30;39.80;;;;;;5034786;28;20574;-64
2023/06/13 12:49:16;;;;;;;8.20;4.00;;;28.40;39.90;;;;;;5034346;28;20402;-64